Time;durP1;ratioP1;P1;durP2;ratioP2;P2;SDS_P1;SDS_P2;PMS_P1;PMS_P2;Temp;Humidity;BMP_temperature;BMP_pressure;BME280_temperature;BME280_humidity;BME280_pressure;Samples;Min_cycle;Max_cycle;Signal;HPM_P1;HPM_P2
2022/05/07 00:01:43;;;;;;;24.17;18.52;;;13.10;99.90;;;;;;5059886;28;20120;-85
2022/05/07 00:04:09;;;;;;;25.65;15.77;;;13.10;99.90;;;;;;5025851;28;20044;-84
2022/05/07 00:06:34;;;;;;;26.98;16.35;;;13.10;99.90;;;;;;5043014;28;20475;-84
2022/05/07 00:09:00;;;;;;;23.90;15.18;;;13.10;99.90;;;;;;5061279;28;20061;-84
2022/05/07 00:11:25;;;;;;;25.70;15.63;;;13.10;99.90;;;;;;5060704;28;20041;-84
2022/05/07 00:13:51;;;;;;;23.38;16.80;;;13.10;99.90;;;;;;5060771;28;20044;-85
2022/05/07 00:19:05;;;;;;;25.73;18.00;;;13.10;99.90;;;;;;5041949;28;20055;-85
2022/05/07 00:21:31;;;;;;;19.85;14.05;;;13.20;99.90;;;;;;5042499;28;20279;-85
2022/05/07 00:23:57;;;;;;;27.63;16.60;;;13.10;99.90;;;;;;5026133;28;20048;-85
2022/05/07 00:26:23;;;;;;;24.02;15.57;;;13.20;99.90;;;;;;5060304;28;20036;-85
2022/05/07 00:28:48;;;;;;;30.52;18.17;;;13.20;99.90;;;;;;5042523;28;20048;-85
2022/05/07 00:31:14;;;;;;;23.40;16.27;;;13.20;99.90;;;;;;5024472;28;20098;-85
2022/05/07 00:33:39;;;;;;;30.80;16.90;;;13.20;99.90;;;;;;5042641;28;20045;-85
2022/05/07 00:36:05;;;;;;;26.58;18.02;;;13.20;99.90;;;;;;5059416;28;20028;-85
2022/05/07 00:38:31;;;;;;;28.40;17.80;;;13.20;99.90;;;;;;5025979;28;20387;-83
2022/05/07 00:40:56;;;;;;;28.10;16.38;;;13.20;99.90;;;;;;5042637;28;20313;-84
2022/05/07 00:43:22;;;;;;;27.65;17.98;;;13.20;99.90;;;;;;5059796;28;20041;-84
2022/05/07 00:45:50;;;;;;;30.48;16.67;;;13.20;99.90;;;;;;5063265;28;20539;-85
2022/05/07 00:48:16;;;;;;;24.13;15.63;;;13.20;99.90;;;;;;5061624;28;20541;-84
2022/05/07 00:53:27;;;;;;;25.50;17.48;;;13.20;99.90;;;;;;5061984;28;20113;-85
2022/05/07 00:55:56;;;;;;;24.90;15.73;;;13.20;99.90;;;;;;5046608;28;20060;-85
2022/05/07 00:58:22;;;;;;;29.50;15.77;;;13.20;99.90;;;;;;5079728;28;20121;-85
2022/05/07 01:00:48;;;;;;;24.85;16.10;;;13.20;99.90;;;;;;5060885;28;20058;-85
2022/05/07 01:03:15;;;;;;;32.03;15.75;;;13.20;99.90;;;;;;5061878;28;20409;-85
2022/05/07 01:05:40;;;;;;;18.85;14.65;;;13.20;99.90;;;;;;5061555;28;20498;-84
2022/05/07 01:08:12;;;;;;;21.13;15.48;;;13.20;99.90;;;;;;5078968;28;20066;-85
2022/05/07 01:10:38;;;;;;;26.70;17.10;;;13.20;99.90;;;;;;5061572;28;20048;-84
2022/05/07 01:13:04;;;;;;;24.50;15.00;;;13.20;99.90;;;;;;5079718;28;20036;-84
2022/05/07 01:15:30;;;;;;;25.38;17.15;;;13.20;99.90;;;;;;5060983;28;20556;-85
2022/05/07 01:17:56;;;;;;;27.27;16.33;;;13.20;99.90;;;;;;5061646;28;20047;-84
2022/05/07 01:20:22;;;;;;;22.88;15.70;;;13.20;99.90;;;;;;5044851;28;20097;-84
2022/05/07 01:22:47;;;;;;;23.02;15.40;;;13.20;99.90;;;;;;5079558;28;20074;-84
2022/05/07 01:25:13;;;;;;;28.92;17.40;;;13.20;99.90;;;;;;5061402;28;20047;-85
2022/05/07 01:27:39;;;;;;;26.65;14.88;;;13.20;99.90;;;;;;5079537;28;20035;-84
2022/05/07 01:30:05;;;;;;;18.60;13.35;;;13.20;99.90;;;;;;5078659;28;20039;-84
2022/05/07 01:32:30;;;;;;;17.60;14.80;;;13.20;99.90;;;;;;5061834;28;20040;-84
2022/05/07 01:34:56;;;;;;;25.58;16.58;;;13.20;99.90;;;;;;5061210;28;20491;-84
2022/05/07 01:37:22;;;;;;;25.23;15.30;;;13.10;99.90;;;;;;5079116;28;20048;-84
2022/05/07 01:39:47;;;;;;;24.45;15.23;;;13.20;99.90;;;;;;5079706;28;20486;-85
2022/05/07 01:42:13;;;;;;;34.75;17.10;;;13.20;99.90;;;;;;5043922;28;20101;-84
2022/05/07 01:44:39;;;;;;;20.30;14.55;;;13.20;99.90;;;;;;5078679;28;20502;-85
2022/05/07 01:49:49;;;;;;;26.70;15.00;;;13.10;99.90;;;;;;5059033;28;20047;-84
2022/05/07 01:52:15;;;;;;;23.13;15.07;;;13.10;99.90;;;;;;5059326;28;20095;-85
2022/05/07 01:54:41;;;;;;;23.55;13.48;;;13.10;99.90;;;;;;5058892;28;20071;-85
2022/05/07 01:57:08;;;;;;;19.40;14.93;;;13.10;99.90;;;;;;5041382;28;20564;-85
2022/05/07 01:59:33;;;;;;;25.50;16.42;;;13.00;99.90;;;;;;5023913;28;20248;-85
2022/05/07 02:01:59;;;;;;;26.80;14.65;;;13.10;99.90;;;;;;5058930;28;20120;-84
2022/05/07 02:04:24;;;;;;;22.33;15.13;;;13.00;99.90;;;;;;5041262;28;20475;-84
2022/05/07 02:06:50;;;;;;;30.13;16.88;;;13.00;99.90;;;;;;5058586;28;20291;-84
2022/05/07 02:09:16;;;;;;;22.08;15.35;;;13.00;99.90;;;;;;5040943;28;20498;-84
2022/05/07 02:11:41;;;;;;;21.17;16.13;;;13.00;99.90;;;;;;5041295;28;20064;-84
2022/05/07 02:14:07;;;;;;;21.77;14.75;;;12.90;99.90;;;;;;5039346;28;20037;-84
2022/05/07 02:16:33;;;;;;;27.38;15.25;;;13.00;99.90;;;;;;5041318;28;20040;-85
2022/05/07 02:18:59;;;;;;;33.75;16.63;;;13.00;99.90;;;;;;5026749;28;20583;-84
2022/05/07 02:21:24;;;;;;;22.17;16.25;;;12.90;99.90;;;;;;5062396;28;20098;-84
2022/05/07 02:23:50;;;;;;;20.83;16.20;;;12.90;99.90;;;;;;5063095;28;20045;-84
2022/05/07 02:26:15;;;;;;;26.20;14.40;;;12.90;99.90;;;;;;5044507;28;20051;-85
2022/05/07 02:28:41;;;;;;;20.25;15.73;;;12.90;99.90;;;;;;5045354;28;20048;-85
2022/05/07 02:31:06;;;;;;;21.70;14.18;;;12.90;99.90;;;;;;5043709;28;20033;-85
2022/05/07 02:33:32;;;;;;;22.77;14.95;;;12.80;99.90;;;;;;5044177;28;20045;-85
2022/05/07 02:35:57;;;;;;;23.80;16.42;;;12.80;99.90;;;;;;5063388;28;20049;-84
2022/05/07 02:38:23;;;;;;;19.25;14.95;;;12.80;99.90;;;;;;5044281;28;20438;-85
2022/05/07 02:43:32;;;;;;;21.55;15.90;;;12.80;99.90;;;;;;5062686;28;20128;-84
2022/05/07 02:45:58;;;;;;;24.75;17.33;;;12.70;99.90;;;;;;5032370;28;20509;-84
2022/05/07 02:48:25;;;;;;;18.70;13.60;;;12.70;99.90;;;;;;5064236;28;20115;-84
2022/05/07 02:50:50;;;;;;;23.83;15.57;;;12.80;99.90;;;;;;5082614;28;20579;-84
2022/05/07 02:53:16;;;;;;;22.55;14.55;;;12.80;99.90;;;;;;5082440;28;20115;-84
2022/05/07 02:55:41;;;;;;;22.90;14.60;;;12.80;99.90;;;;;;5064824;28;20044;-85
2022/05/07 02:58:08;;;;;;;25.55;14.23;;;12.70;99.90;;;;;;5063334;28;20044;-84
2022/05/07 03:00:34;;;;;;;25.80;15.43;;;12.70;99.90;;;;;;5063664;28;20079;-85
2022/05/07 03:02:59;;;;;;;23.25;15.98;;;12.80;99.90;;;;;;5064452;28;20107;-84
2022/05/07 03:05:25;;;;;;;19.08;15.00;;;12.70;99.90;;;;;;5063617;28;20235;-84
2022/05/07 03:07:51;;;;;;;24.30;16.17;;;12.80;99.90;;;;;;5047635;28;20113;-84
2022/05/07 03:10:16;;;;;;;19.95;16.35;;;12.80;99.90;;;;;;5081565;28;20044;-84
2022/05/07 03:12:42;;;;;;;24.90;17.00;;;12.80;99.90;;;;;;5081809;28;20032;-84
2022/05/07 03:15:08;;;;;;;25.10;16.63;;;12.70;99.90;;;;;;5046267;28;20122;-84
2022/05/07 03:17:34;;;;;;;19.48;16.05;;;12.70;99.90;;;;;;5030303;28;20297;-84
2022/05/07 03:20:00;;;;;;;23.63;15.25;;;12.70;99.90;;;;;;5048198;28;20040;-84
2022/05/07 03:22:26;;;;;;;19.95;15.52;;;12.80;99.90;;;;;;5082026;28;20040;-84
2022/05/07 03:24:51;;;;;;;24.73;14.10;;;12.70;99.90;;;;;;5063787;28;20048;-84
2022/05/07 03:27:17;;;;;;;25.40;14.68;;;12.70;99.90;;;;;;5064529;28;20446;-84
2022/05/07 03:29:42;;;;;;;24.13;14.82;;;12.70;99.90;;;;;;5044791;28;20044;-84
2022/05/07 03:32:09;;;;;;;25.50;17.70;;;12.70;99.90;;;;;;5081524;28;20036;-84
2022/05/07 03:34:35;;;;;;;19.02;15.20;;;12.70;99.90;;;;;;5063425;28;20044;-85
2022/05/07 03:37:00;;;;;;;22.75;18.65;;;12.70;99.90;;;;;;5046172;28;20236;-85
2022/05/07 03:39:26;;;;;;;26.25;16.73;;;12.70;99.90;;;;;;5082277;28;20044;-84
2022/05/07 03:41:53;;;;;;;20.30;13.27;;;12.70;99.90;;;;;;5081376;28;20101;-84
2022/05/07 03:44:18;;;;;;;23.00;15.18;;;12.70;99.90;;;;;;5080295;28;20051;-84
2022/05/07 03:46:44;;;;;;;24.98;16.60;;;12.70;99.90;;;;;;5069792;28;20045;-84
2022/05/07 03:49:09;;;;;;;25.52;14.43;;;12.70;99.90;;;;;;5060744;28;20071;-84
2022/05/07 03:54:20;;;;;;;22.88;14.32;;;12.70;99.90;;;;;;5060801;28;20052;-84
2022/05/07 03:56:45;;;;;;;19.38;16.05;;;12.70;99.90;;;;;;5061178;28;20324;-84
2022/05/07 03:59:11;;;;;;;21.58;15.18;;;12.70;99.90;;;;;;5041873;28;20127;-84
2022/05/07 04:01:36;;;;;;;21.23;16.15;;;12.70;99.90;;;;;;5042889;28;20097;-84
2022/05/07 04:04:02;;;;;;;17.77;14.35;;;12.70;99.90;;;;;;5060761;28;20380;-85
2022/05/07 04:06:28;;;;;;;22.15;17.05;;;12.70;99.90;;;;;;5043487;28;20086;-84
2022/05/07 04:08:54;;;;;;;19.25;13.75;;;12.70;99.90;;;;;;5042185;28;20056;-84
2022/05/07 04:11:19;;;;;;;16.33;14.25;;;12.70;99.90;;;;;;5060578;28;20041;-84
2022/05/07 04:13:45;;;;;;;20.80;13.80;;;12.70;99.90;;;;;;5041670;28;20052;-85
2022/05/07 04:16:10;;;;;;;17.38;14.85;;;12.70;99.90;;;;;;5060564;28;20041;-84
2022/05/07 04:18:38;;;;;;;21.05;16.15;;;12.70;99.90;;;;;;5061045;28;20052;-84
2022/05/07 04:21:04;;;;;;;18.13;14.15;;;12.70;99.90;;;;;;5042154;28;20036;-84
2022/05/07 04:23:30;;;;;;;20.40;15.82;;;12.70;99.90;;;;;;5061007;28;20117;-84
2022/05/07 04:25:57;;;;;;;22.05;17.33;;;12.70;99.90;;;;;;5042717;28;20351;-84
2022/05/07 04:28:22;;;;;;;22.55;16.63;;;12.70;99.90;;;;;;5025836;28;20376;-84
2022/05/07 04:30:48;;;;;;;24.52;15.82;;;12.70;99.90;;;;;;5059310;28;20041;-84
2022/05/07 04:33:15;;;;;;;21.30;15.93;;;12.80;99.90;;;;;;5059574;28;20055;-84
2022/05/07 04:35:41;;;;;;;20.67;15.65;;;12.70;99.90;;;;;;5060135;28;20384;-85
2022/05/07 04:38:07;;;;;;;18.58;15.32;;;12.80;99.90;;;;;;5059338;28;20269;-85
2022/05/07 04:40:32;;;;;;;21.60;15.68;;;12.80;99.90;;;;;;5060607;28;20429;-84
2022/05/07 04:42:58;;;;;;;25.20;13.88;;;12.80;99.90;;;;;;5042672;28;20048;-85
2022/05/07 04:45:28;;;;;;;30.35;18.20;;;12.70;99.90;;;;;;5058910;28;20079;-84
2022/05/07 04:47:54;;;;;;;27.05;14.55;;;12.80;99.90;;;;;;5080473;28;20051;-85
2022/05/07 04:50:19;;;;;;;20.95;16.92;;;12.80;99.90;;;;;;5061075;28;20394;-85
2022/05/07 04:52:45;;;;;;;20.42;14.60;;;12.80;99.90;;;;;;5062116;28;20052;-84
2022/05/07 04:55:11;;;;;;;16.33;14.10;;;12.80;99.90;;;;;;5079254;28;20039;-85
2022/05/07 04:57:36;;;;;;;28.30;15.50;;;12.70;99.90;;;;;;5079747;28;20135;-85
2022/05/07 05:00:04;;;;;;;19.52;15.15;;;12.70;99.90;;;;;;5078980;28;20043;-85
2022/05/07 05:02:29;;;;;;;21.45;15.48;;;12.80;99.90;;;;;;5044905;28;20623;-85
2022/05/07 05:04:55;;;;;;;17.33;14.70;;;12.80;99.90;;;;;;5062188;28;20127;-85
2022/05/07 05:07:21;;;;;;;21.88;17.05;;;12.80;99.90;;;;;;5061340;28;20059;-85
2022/05/07 05:09:46;;;;;;;23.13;16.35;;;12.80;99.90;;;;;;5079340;28;20047;-85
2022/05/07 05:12:12;;;;;;;24.27;16.08;;;12.80;99.90;;;;;;5079965;28;20067;-85
2022/05/07 05:17:22;;;;;;;20.83;17.23;;;12.80;99.90;;;;;;5079438;28;20051;-85
2022/05/07 05:19:47;;;;;;;22.75;17.13;;;12.80;99.90;;;;;;5061399;28;20048;-85
2022/05/07 05:22:13;;;;;;;20.13;17.15;;;12.90;99.90;;;;;;5079182;28;20040;-85
2022/05/07 05:24:38;;;;;;;26.05;17.98;;;12.90;99.90;;;;;;5079293;28;20119;-85
2022/05/07 05:27:04;;;;;;;25.27;17.75;;;12.90;99.90;;;;;;5061343;28;20638;-85
2022/05/07 05:29:30;;;;;;;26.27;19.13;;;12.90;99.90;;;;;;5078580;28;20236;-85
2022/05/07 05:31:55;;;;;;;23.40;17.10;;;12.90;99.90;;;;;;5080171;28;20037;-85
2022/05/07 05:34:21;;;;;;;18.58;16.65;;;12.90;99.90;;;;;;5078836;28;20131;-85
2022/05/07 05:36:46;;;;;;;18.65;15.38;;;12.90;99.90;;;;;;5079389;28;20044;-85
2022/05/07 05:39:12;;;;;;;24.83;18.85;;;13.00;99.90;;;;;;5060818;28;20040;-85
2022/05/07 05:41:41;;;;;;;27.58;19.15;;;13.00;99.90;;;;;;5079263;28;20036;-85
2022/05/07 05:44:06;;;;;;;28.40;19.70;;;13.10;99.90;;;;;;5059962;28;20397;-85
2022/05/07 05:46:32;;;;;;;22.60;19.27;;;13.00;99.90;;;;;;5050940;28;20128;-85
2022/05/07 05:48:57;;;;;;;30.63;21.95;;;13.10;99.90;;;;;;5041747;28;20067;-85
2022/05/07 05:51:26;;;;;;;34.85;19.60;;;13.10;99.90;;;;;;5058345;28;20317;-85
2022/05/07 05:53:52;;;;;;;32.00;18.33;;;13.10;99.90;;;;;;5058457;28;20033;-85
2022/05/07 05:56:17;;;;;;;28.55;21.30;;;13.10;99.90;;;;;;5041075;28;20368;-85
2022/05/07 05:58:43;;;;;;;44.53;24.30;;;13.10;99.90;;;;;;5040335;28;20233;-85
2022/05/07 06:01:09;;;;;;;28.65;21.30;;;13.10;99.90;;;;;;5040765;28;20045;-85
2022/05/07 06:03:34;;;;;;;27.85;20.90;;;13.20;99.90;;;;;;5040935;28;20049;-86
2022/05/07 06:06:00;;;;;;;33.97;19.02;;;13.20;99.90;;;;;;5040823;28;20328;-84
2022/05/07 06:08:26;;;;;;;39.42;21.45;;;13.20;99.90;;;;;;5059276;28;20083;-85
2022/05/07 06:10:54;;;;;;;30.83;21.52;;;13.20;99.90;;;;;;5058222;28;20076;-85
2022/05/07 06:13:20;;;;;;;34.55;21.65;;;13.20;99.90;;;;;;5058860;28;20040;-85
2022/05/07 06:15:51;;;;;;;29.95;20.23;;;13.20;99.90;;;;;;5022827;28;20509;-85
2022/05/07 06:18:20;;;;;;;26.85;18.42;;;13.30;99.90;;;;;;5058690;28;20114;-85
2022/05/07 06:20:46;;;;;;;35.17;19.90;;;13.30;99.90;;;;;;5058171;28;20527;-85
2022/05/07 06:23:11;;;;;;;22.45;17.20;;;13.40;99.90;;;;;;5058774;28;20036;-85
2022/05/07 06:28:22;;;;;;;26.55;20.92;;;13.50;99.90;;;;;;5039441;28;20593;-84
2022/05/07 06:30:48;;;;;;;29.65;21.10;;;13.50;99.90;;;;;;5024524;28;20048;-86
2022/05/07 06:33:14;;;;;;;32.45;21.48;;;13.50;99.90;;;;;;5057689;28;20576;-85
2022/05/07 06:35:40;;;;;;;33.67;19.38;;;13.50;99.90;;;;;;5040588;28;20044;-85
2022/05/07 06:38:05;;;;;;;38.78;21.50;;;13.60;99.90;;;;;;5058410;28;20391;-85
2022/05/07 06:40:31;;;;;;;33.50;21.90;;;13.60;99.90;;;;;;5058113;28;20037;-86
2022/05/07 06:42:56;;;;;;;36.45;23.13;;;13.70;99.90;;;;;;5041297;28;20055;-85
2022/05/07 06:45:22;;;;;;;37.15;22.90;;;13.70;99.90;;;;;;5039346;28;20040;-85
2022/05/07 06:47:48;;;;;;;33.92;22.88;;;13.70;99.90;;;;;;5060526;28;20087;-85
2022/05/07 06:50:13;;;;;;;33.15;22.27;;;13.70;99.90;;;;;;5078854;28;20407;-85
2022/05/07 06:52:44;;;;;;;38.65;23.45;;;13.70;99.90;;;;;;5078258;28;20044;-85
2022/05/07 06:55:14;;;;;;;40.85;22.00;;;13.70;99.90;;;;;;5078474;28;20048;-85
2022/05/07 06:57:40;;;;;;;27.00;18.67;;;13.70;99.90;;;;;;5059923;28;20040;-86
2022/05/07 07:00:06;;;;;;;35.40;20.70;;;13.80;99.90;;;;;;5059846;28;20070;-85
2022/05/07 07:02:32;;;;;;;46.03;21.42;;;13.80;99.90;;;;;;5078240;28;20348;-86
2022/05/07 07:05:00;;;;;;;34.97;22.60;;;13.70;99.90;;;;;;5060980;28;20236;-85
2022/05/07 07:07:25;;;;;;;40.33;20.83;;;13.70;99.90;;;;;;5082299;28;20071;-86
2022/05/07 07:09:52;;;;;;;42.92;20.63;;;13.80;99.90;;;;;;5081856;28;20040;-85
2022/05/07 07:12:19;;;;;;;33.63;20.40;;;13.80;99.90;;;;;;5081656;28;20051;-85
2022/05/07 07:14:45;;;;;;;28.15;17.42;;;13.80;99.90;;;;;;5062673;28;20075;-85
2022/05/07 07:17:10;;;;;;;27.90;16.13;;;13.80;99.90;;;;;;5081914;28;20511;-86
2022/05/07 07:19:37;;;;;;;23.70;14.43;;;13.80;99.90;;;;;;5063523;28;20055;-85
2022/05/07 07:22:03;;;;;;;27.65;18.80;;;13.80;99.90;;;;;;5081290;28;20040;-86
2022/05/07 07:24:28;;;;;;;31.60;17.60;;;13.80;99.90;;;;;;5082124;28;20418;-85
2022/05/07 07:26:54;;;;;;;27.25;19.33;;;13.80;99.90;;;;;;5081536;28;20040;-85
2022/05/07 07:29:19;;;;;;;27.45;16.58;;;13.80;99.90;;;;;;5062547;28;20047;-85
2022/05/07 07:31:45;;;;;;;38.35;19.58;;;13.80;99.90;;;;;;5063195;28;20028;-85
2022/05/07 07:34:10;;;;;;;34.08;18.90;;;13.80;99.90;;;;;;5062934;28;20188;-85
2022/05/07 07:36:38;;;;;;;31.95;21.42;;;13.80;99.90;;;;;;5047178;28;20104;-85
2022/05/07 07:39:07;;;;;;;34.97;21.15;;;13.80;99.90;;;;;;5063549;28;20040;-84
2022/05/07 07:41:34;;;;;;;37.53;19.23;;;13.80;99.90;;;;;;5080999;28;20051;-85
2022/05/07 07:43:59;;;;;;;37.80;21.90;;;13.90;99.90;;;;;;5080300;28;20565;-85
2022/05/07 07:49:09;;;;;;;32.05;21.05;;;13.90;99.90;;;;;;5061047;28;20233;-85
2022/05/07 07:51:36;;;;;;;38.38;21.55;;;13.90;99.90;;;;;;5060898;28;20656;-85
2022/05/07 07:54:04;;;;;;;38.13;23.95;;;13.90;99.90;;;;;;5043205;28;20063;-84
2022/05/07 07:56:30;;;;;;;39.17;21.25;;;13.90;99.90;;;;;;5010898;28;20548;-84
2022/05/07 07:58:56;;;;;;;40.33;22.55;;;14.00;99.90;;;;;;5042701;28;20127;-84
2022/05/07 08:01:22;;;;;;;33.15;22.90;;;14.00;99.90;;;;;;5060739;28;20438;-84
2022/05/07 08:03:47;;;;;;;37.03;20.63;;;14.00;99.90;;;;;;5060715;28;20383;-84
2022/05/07 08:06:13;;;;;;;51.35;23.40;;;14.10;99.90;;;;;;5042816;28;20171;-84
2022/05/07 08:11:41;;;;;;;34.80;21.55;;;14.10;99.90;;;;;;5043066;28;20067;-84
2022/05/07 08:14:08;;;;;;;34.22;19.67;;;14.20;99.90;;;;;;5059332;28;20079;-84
2022/05/07 08:16:34;;;;;;;22.42;16.38;;;14.20;99.90;;;;;;5042075;28;20041;-84
2022/05/07 08:18:59;;;;;;;32.20;18.13;;;14.20;99.90;;;;;;5043131;28;20041;-85
2022/05/07 08:21:25;;;;;;;35.50;16.80;;;14.30;99.90;;;;;;5060274;28;20036;-84
2022/05/07 08:23:51;;;;;;;27.23;16.30;;;14.30;99.90;;;;;;5060330;28;20047;-84
2022/05/07 08:26:16;;;;;;;23.40;14.30;;;14.30;99.90;;;;;;5059980;28;20562;-84
2022/05/07 08:28:42;;;;;;;32.80;17.25;;;14.30;99.90;;;;;;5059325;28;20048;-84
2022/05/07 08:31:10;;;;;;;27.70;15.57;;;14.30;99.90;;;;;;5060259;28;20525;-85
2022/05/07 08:33:37;;;;;;;27.95;17.30;;;14.40;99.90;;;;;;5041853;28;20044;-84
2022/05/07 08:36:03;;;;;;;25.35;15.77;;;14.40;99.90;;;;;;5060209;28;20127;-84
2022/05/07 08:38:29;;;;;;;24.02;14.30;;;14.40;99.90;;;;;;5060461;28;20136;-84
2022/05/07 08:40:55;;;;;;;22.45;13.20;;;14.50;99.90;;;;;;5059991;28;20538;-84
2022/05/07 08:43:21;;;;;;;24.63;14.75;;;14.50;99.90;;;;;;5059082;28;20048;-84
2022/05/07 08:45:47;;;;;;;20.42;12.85;;;14.50;99.90;;;;;;5063159;28;20526;-84
2022/05/07 08:48:15;;;;;;;27.17;14.48;;;14.50;99.90;;;;;;5061951;28;20044;-84
2022/05/07 08:50:44;;;;;;;23.15;13.30;;;14.60;99.90;;;;;;5045059;28;20157;-85
2022/05/07 08:53:09;;;;;;;22.20;12.85;;;14.60;99.90;;;;;;5080448;28;20088;-84
2022/05/07 08:55:36;;;;;;;24.10;14.50;;;14.70;99.90;;;;;;5061759;28;20522;-84
2022/05/07 08:58:02;;;;;;;22.20;14.32;;;14.70;99.90;;;;;;5078515;28;20047;-85
2022/05/07 09:00:28;;;;;;;18.77;12.07;;;14.70;99.90;;;;;;5080826;28;20490;-84
2022/05/07 09:02:59;;;;;;;24.38;14.57;;;14.70;99.90;;;;;;5079417;28;20040;-85
2022/05/07 09:05:33;;;;;;;19.33;14.67;;;14.80;99.90;;;;;;5061981;28;20394;-84
2022/05/07 09:07:59;;;;;;;26.52;16.63;;;14.80;99.90;;;;;;5080032;28;20088;-85
2022/05/07 09:10:32;;;;;;;33.47;14.25;;;14.80;99.90;;;;;;5079239;28;20143;-84
2022/05/07 09:13:08;;;;;;;28.77;15.32;;;14.90;99.90;;;;;;5061557;28;20040;-84
2022/05/07 09:15:35;;;;;;;27.63;13.95;;;15.00;99.90;;;;;;5061945;28;20532;-84
2022/05/07 09:18:00;;;;;;;24.67;12.50;;;15.00;99.90;;;;;;5061356;28;20430;-83
2022/05/07 09:20:27;;;;;;;21.35;13.07;;;15.00;99.90;;;;;;5080180;28;20043;-84
2022/05/07 09:22:55;;;;;;;20.65;12.73;;;15.10;99.90;;;;;;5079680;28;20467;-84
2022/05/07 09:25:30;;;;;;;22.80;11.35;;;15.00;99.90;;;;;;5078968;28;20044;-84
2022/05/07 09:27:56;;;;;;;17.77;11.50;;;15.00;99.90;;;;;;5077628;28;20210;-85
2022/05/07 09:30:24;;;;;;;18.50;11.35;;;15.00;99.90;;;;;;5079580;28;20039;-84
2022/05/07 09:32:52;;;;;;;17.48;9.35;;;15.00;99.90;;;;;;5044213;28;20047;-84
2022/05/07 09:38:04;;;;;;;23.42;10.05;;;15.00;99.90;;;;;;5078796;28;20051;-85
2022/05/07 09:40:30;;;;;;;21.50;11.70;;;15.00;99.90;;;;;;5061545;28;20032;-85
2022/05/07 09:42:59;;;;;;;19.58;11.80;;;15.00;99.90;;;;;;5078688;28;20055;-85
2022/05/07 09:45:29;;;;;;;22.45;11.13;;;15.00;99.90;;;;;;5060134;28;20040;-85
2022/05/07 09:47:55;;;;;;;25.80;12.60;;;14.90;99.90;;;;;;5059183;28;20072;-85
2022/05/07 09:50:43;;;;;;;22.42;12.40;;;14.90;99.90;;;;;;5058798;28;20049;-84
2022/05/07 09:58:48;;;;;;;28.70;13.95;;;15.00;99.90;;;;;;5039420;28;20154;-85
2022/05/07 10:01:51;;;;;;;22.70;11.52;;;15.00;99.90;;;;;;5040942;28;20072;-85
2022/05/07 10:04:20;;;;;;;19.75;11.43;;;15.10;99.90;;;;;;5058668;28;20546;-85
2022/05/07 10:07:19;;;;;;;22.77;13.38;;;15.10;99.90;;;;;;5040543;28;20139;-84
2022/05/07 10:10:03;;;;;;;27.75;13.20;;;15.10;99.90;;;;;;5040627;28;20042;-85
2022/05/07 10:12:29;;;;;;;18.60;10.40;;;15.20;99.90;;;;;;5059504;28;20111;-85
2022/05/07 10:15:08;;;;;;;21.63;12.23;;;15.20;99.90;;;;;;5057513;28;20040;-84
2022/05/07 10:17:35;;;;;;;16.58;8.52;;;15.30;99.90;;;;;;5040210;28;20044;-85
2022/05/07 10:20:12;;;;;;;7.40;5.60;;;15.30;99.90;;;;;;5058841;28;20045;-85
2022/05/07 10:22:37;;;;;;;7.30;4.18;;;15.30;99.90;;;;;;5024827;28;20045;-85
2022/05/07 10:25:04;;;;;;;4.70;4.28;;;15.40;99.90;;;;;;5040672;28;20037;-85
2022/05/07 10:27:43;;;;;;;9.65;3.75;;;15.40;99.90;;;;;;5040810;28;20055;-85
2022/05/07 10:30:09;;;;;;;6.78;3.50;;;15.50;99.90;;;;;;5040245;28;20045;-85
2022/05/07 10:32:48;;;;;;;6.30;3.58;;;15.50;99.90;;;;;;5040990;28;20051;-85
2022/05/07 10:35:14;;;;;;;7.15;3.78;;;15.50;99.90;;;;;;5058426;28;20041;-84
2022/05/07 10:37:43;;;;;;;7.10;3.83;;;15.60;99.90;;;;;;5023848;28;20257;-85
2022/05/07 10:40:13;;;;;;;4.55;3.22;;;15.60;99.90;;;;;;5042637;28;20047;-85
2022/05/07 10:42:39;;;;;;;6.88;3.88;;;15.60;99.90;;;;;;5043986;28;20367;-85
2022/05/07 10:45:06;;;;;;;10.15;5.13;;;15.60;99.90;;;;;;5027508;28;20048;-84
2022/05/07 10:47:32;;;;;;;10.80;6.35;;;15.60;99.90;;;;;;5062039;28;20433;-85
2022/05/07 10:50:12;;;;;;;14.63;6.32;;;15.60;99.90;;;;;;5083047;28;20047;-85
2022/05/07 10:52:38;;;;;;;6.90;4.72;;;15.60;99.90;;;;;;5082615;28;20040;-85
2022/05/07 10:55:04;;;;;;;7.07;4.18;;;15.60;99.90;;;;;;5081579;28;20134;-85
2022/05/07 10:57:47;;;;;;;10.35;6.45;;;15.60;99.90;;;;;;5064871;28;20043;-85
2022/05/07 11:00:18;;;;;;;12.98;5.15;;;15.60;99.90;;;;;;5064075;28;20356;-85
2022/05/07 11:02:45;;;;;;;8.50;5.30;;;15.60;99.90;;;;;;5082301;28;20035;-85
2022/05/07 11:05:11;;;;;;;9.32;5.00;;;15.60;99.90;;;;;;5063570;28;20052;-85
2022/05/07 11:07:39;;;;;;;9.90;5.28;;;15.60;99.90;;;;;;5081636;28;20048;-85
2022/05/07 11:10:05;;;;;;;9.32;4.50;;;15.70;99.90;;;;;;5081782;28;20048;-84
2022/05/07 11:12:30;;;;;;;7.97;5.82;;;15.70;99.90;;;;;;5047468;28;20040;-85
2022/05/07 11:14:56;;;;;;;4.95;4.32;;;15.70;99.90;;;;;;5063838;28;20050;-85
2022/05/07 11:17:35;;;;;;;6.93;4.90;;;15.70;99.90;;;;;;5063452;28;20429;-84
2022/05/07 11:20:02;;;;;;;12.88;5.90;;;15.70;99.90;;;;;;5063736;28;20300;-83
2022/05/07 11:22:31;;;;;;;13.35;5.30;;;15.80;99.90;;;;;;5082331;28;20042;-85
2022/05/07 11:25:01;;;;;;;7.88;4.80;;;15.70;99.90;;;;;;5063390;28;20062;-84
2022/05/07 11:27:32;;;;;;;6.95;4.65;;;15.80;99.90;;;;;;5082723;28;20052;-85
2022/05/07 11:29:59;;;;;;;7.07;3.63;;;15.80;99.90;;;;;;5063201;28;20478;-84
2022/05/07 11:32:36;;;;;;;6.55;4.43;;;15.80;99.90;;;;;;5064127;28;20150;-85
2022/05/07 11:35:02;;;;;;;7.45;3.70;;;15.90;99.90;;;;;;5081395;28;20071;-85
2022/05/07 11:37:27;;;;;;;6.68;4.65;;;16.00;99.90;;;;;;5047038;28;20156;-85
2022/05/07 11:39:57;;;;;;;7.68;4.68;;;16.00;99.90;;;;;;5081543;28;20500;-85
2022/05/07 11:42:43;;;;;;;9.15;5.35;;;16.10;99.90;;;;;;5046338;28;20675;-85
2022/05/07 11:45:26;;;;;;;9.50;5.45;;;16.10;99.90;;;;;;5046193;28;20558;-85
2022/05/07 11:47:58;;;;;;;7.15;4.85;;;16.10;99.90;;;;;;5041487;28;20646;-85
2022/05/07 11:50:25;;;;;;;9.35;4.60;;;16.10;99.90;;;;;;5040442;28;20052;-85
2022/05/07 11:52:52;;;;;;;10.73;5.00;;;16.00;99.90;;;;;;5022788;28;20037;-85
2022/05/07 11:55:27;;;;;;;10.88;4.93;;;16.10;99.90;;;;;;5039410;28;20045;-85
2022/05/07 11:57:52;;;;;;;7.82;5.38;;;16.10;99.90;;;;;;5039910;28;20086;-85
2022/05/07 12:00:27;;;;;;;5.57;4.53;;;16.10;99.90;;;;;;5022994;28;20052;-85
2022/05/07 12:02:55;;;;;;;7.10;4.40;;;16.20;99.90;;;;;;5022873;28;20079;-85
2022/05/07 12:05:22;;;;;;;9.57;5.28;;;16.20;99.90;;;;;;5039331;28;20117;-84
2022/05/07 12:07:49;;;;;;;10.27;4.75;;;16.30;99.90;;;;;;5040262;28;20059;-85
2022/05/07 12:10:19;;;;;;;7.85;5.00;;;16.30;99.90;;;;;;5040106;28;20052;-85
2022/05/07 12:12:47;;;;;;;6.00;4.40;;;16.30;99.90;;;;;;5039971;28;20056;-84
2022/05/07 12:15:12;;;;;;;10.70;4.82;;;16.40;99.90;;;;;;5040434;28;20326;-85
2022/05/07 12:17:53;;;;;;;7.30;4.78;;;16.40;99.90;;;;;;5022478;28;20047;-85
2022/05/07 12:20:23;;;;;;;6.95;3.60;;;16.40;99.90;;;;;;5040504;28;20116;-85
2022/05/07 12:31:18;;;;;;;7.65;4.13;;;16.40;99.90;;;;;;5040173;28;20052;-85
2022/05/07 12:33:43;;;;;;;4.88;3.53;;;16.40;99.90;;;;;;5040029;28;20096;-85
2022/05/07 12:36:09;;;;;;;5.65;3.80;;;16.40;99.90;;;;;;5040346;28;20399;-85
2022/05/07 12:38:35;;;;;;;8.02;5.05;;;16.30;99.90;;;;;;5022271;28;20518;-85
2022/05/07 12:41:02;;;;;;;7.07;3.45;;;16.40;99.90;;;;;;5035795;28;20044;-84
2022/05/07 12:43:28;;;;;;;7.13;4.00;;;16.40;99.90;;;;;;5045730;28;20032;-84
2022/05/07 12:45:54;;;;;;;7.22;3.90;;;16.40;99.90;;;;;;5036875;28;20430;-80
2022/05/07 12:48:20;;;;;;;11.82;2.83;;;16.40;99.90;;;;;;5059284;28;20135;-83
2022/05/07 12:50:46;;;;;;;4.70;3.42;;;16.50;99.90;;;;;;5042435;28;20040;-79
2022/05/07 12:53:14;;;;;;;5.43;2.80;;;16.50;99.90;;;;;;5052643;28;20119;-84
2022/05/07 12:55:41;;;;;;;5.05;3.78;;;16.50;99.90;;;;;;5059909;28;20040;-85
2022/05/07 12:58:08;;;;;;;5.82;2.85;;;16.50;99.90;;;;;;5052712;28;20123;-84
2022/05/07 13:00:35;;;;;;;7.47;4.07;;;16.50;99.90;;;;;;5043311;28;20693;-84
2022/05/07 13:03:02;;;;;;;8.02;4.05;;;16.50;99.90;;;;;;5061904;28;20036;-83
2022/05/07 13:05:27;;;;;;;4.10;2.88;;;16.50;99.90;;;;;;5051090;28;20763;-83
2022/05/07 13:07:53;;;;;;;5.30;2.63;;;16.50;99.90;;;;;;5070616;28;20060;-83
2022/05/07 13:10:19;;;;;;;3.70;2.05;;;16.50;99.90;;;;;;5063470;28;20477;-86
2022/05/07 13:12:46;;;;;;;3.92;2.38;;;16.60;99.90;;;;;;5039232;28;20462;-87